sensor_id;sensor_type;location;lat;lon;timestamp;temperature;humidity
27779;DHT22;30234;48.090;11.464;2022-07-29T00:03:06;18.90;99.90
27779;DHT22;30234;48.090;11.464;2022-07-29T00:07:06;18.90;99.90
27779;DHT22;30234;48.090;11.464;2022-07-29T00:11:07;18.80;99.90
27779;DHT22;30234;48.090;11.464;2022-07-29T00:15:08;18.80;99.90
27779;DHT22;30234;48.090;11.464;2022-07-29T00:19:09;18.80;99.90
27779;DHT22;30234;48.090;11.464;2022-07-29T00:23:09;18.80;99.90
27779;DHT22;30234;48.090;11.464;2022-07-29T00:27:10;18.80;99.90
27779;DHT22;30234;48.090;11.464;2022-07-29T00:31:11;18.90;99.90
27779;DHT22;30234;48.090;11.464;2022-07-29T00:35:12;18.90;99.90
27779;DHT22;30234;48.090;11.464;2022-07-29T00:39:31;19.00;99.90
27779;DHT22;30234;48.090;11.464;2022-07-29T00:43:32;19.00;99.90
27779;DHT22;30234;48.090;11.464;2022-07-29T00:47:33;19.10;99.90
27779;DHT22;30234;48.090;11.464;2022-07-29T00:51:37;19.10;99.90
27779;DHT22;30234;48.090;11.464;2022-07-29T00:55:38;19.20;99.90
27779;DHT22;30234;48.090;11.464;2022-07-29T00:59:39;19.20;99.90
27779;DHT22;30234;48.090;11.464;2022-07-29T01:03:39;19.30;99.90
27779;DHT22;30234;48.090;11.464;2022-07-29T01:07:41;19.30;99.90
27779;DHT22;30234;48.090;11.464;2022-07-29T01:11:43;19.30;99.90
27779;DHT22;30234;48.090;11.464;2022-07-29T01:15:49;19.40;99.90
27779;DHT22;30234;48.090;11.464;2022-07-29T01:20:10;19.50;99.90
27779;DHT22;30234;48.090;11.464;2022-07-29T01:25:02;19.40;99.90
27779;DHT22;30234;48.090;11.464;2022-07-29T01:29:29;19.30;99.90
27779;DHT22;30234;48.090;11.464;2022-07-29T01:33:33;19.20;99.90
27779;DHT22;30234;48.090;11.464;2022-07-29T01:38:12;19.10;99.90
27779;DHT22;30234;48.090;11.464;2022-07-29T01:42:42;19.00;99.90
27779;DHT22;30234;48.090;11.464;2022-07-29T01:46:50;19.00;99.90
27779;DHT22;30234;48.090;11.464;2022-07-29T01:51:00;18.90;99.90
27779;DHT22;30234;48.090;11.464;2022-07-29T01:55:13;18.90;99.90
27779;DHT22;30234;48.090;11.464;2022-07-29T01:59:16;18.90;99.90
27779;DHT22;30234;48.090;11.464;2022-07-29T02:03:18;18.80;99.90
27779;DHT22;30234;48.090;11.464;2022-07-29T02:07:21;18.70;99.90
27779;DHT22;30234;48.090;11.464;2022-07-29T02:11:23;18.60;99.90
27779;DHT22;30234;48.090;11.464;2022-07-29T02:15:25;18.70;99.90
27779;DHT22;30234;48.090;11.464;2022-07-29T02:19:29;18.60;99.90
27779;DHT22;30234;48.090;11.464;2022-07-29T02:23:35;18.50;99.90
27779;DHT22;30234;48.090;11.464;2022-07-29T02:27:39;18.40;99.90
27779;DHT22;30234;48.090;11.464;2022-07-29T02:31:41;18.20;99.90
27779;DHT22;30234;48.090;11.464;2022-07-29T02:35:45;18.10;99.90
27779;DHT22;30234;48.090;11.464;2022-07-29T02:39:47;18.00;99.90
27779;DHT22;30234;48.090;11.464;2022-07-29T02:43:55;17.90;99.90
27779;DHT22;30234;48.090;11.464;2022-07-29T02:48:13;17.70;99.90
27779;DHT22;30234;48.090;11.464;2022-07-29T02:52:22;17.60;99.90
27779;DHT22;30234;48.090;11.464;2022-07-29T02:56:28;17.50;99.90
27779;DHT22;30234;48.090;11.464;2022-07-29T03:00:37;17.30;99.90
27779;DHT22;30234;48.090;11.464;2022-07-29T03:04:40;17.10;99.90
27779;DHT22;30234;48.090;11.464;2022-07-29T03:08:41;17.00;99.90
27779;DHT22;30234;48.090;11.464;2022-07-29T03:12:43;16.90;99.90
27779;DHT22;30234;48.090;11.464;2022-07-29T03:16:44;16.70;99.90
27779;DHT22;30234;48.090;11.464;2022-07-29T03:20:46;16.60;99.90
27779;DHT22;30234;48.090;11.464;2022-07-29T03:24:46;16.40;99.90
27779;DHT22;30234;48.090;11.464;2022-07-29T03:28:47;16.40;99.90
27779;DHT22;30234;48.090;11.464;2022-07-29T03:32:49;16.30;99.90
27779;DHT22;30234;48.090;11.464;2022-07-29T03:36:50;16.30;99.90
27779;DHT22;30234;48.090;11.464;2022-07-29T03:40:54;16.30;99.90
27779;DHT22;30234;48.090;11.464;2022-07-29T03:44:58;16.30;99.90
27779;DHT22;30234;48.090;11.464;2022-07-29T03:49:04;16.50;99.90
27779;DHT22;30234;48.090;11.464;2022-07-29T03:53:05;16.50;99.90
27779;DHT22;30234;48.090;11.464;2022-07-29T03:57:07;16.50;99.90
27779;DHT22;30234;48.090;11.464;2022-07-29T04:01:08;16.50;99.90
27779;DHT22;30234;48.090;11.464;2022-07-29T04:05:13;16.60;99.90
27779;DHT22;30234;48.090;11.464;2022-07-29T04:09:14;16.60;99.90
27779;DHT22;30234;48.090;11.464;2022-07-29T04:13:15;16.70;99.90
27779;DHT22;30234;48.090;11.464;2022-07-29T04:17:16;17.00;99.90
27779;DHT22;30234;48.090;11.464;2022-07-29T04:21:17;17.40;99.90
27779;DHT22;30234;48.090;11.464;2022-07-29T04:25:17;17.80;99.90
27779;DHT22;30234;48.090;11.464;2022-07-29T04:29:18;18.50;99.90
27779;DHT22;30234;48.090;11.464;2022-07-29T04:33:20;19.20;99.90
27779;DHT22;30234;48.090;11.464;2022-07-29T04:37:20;19.30;99.90
27779;DHT22;30234;48.090;11.464;2022-07-29T04:41:21;19.60;99.90
27779;DHT22;30234;48.090;11.464;2022-07-29T04:45:22;22.00;99.90
27779;DHT22;30234;48.090;11.464;2022-07-29T04:49:23;24.20;99.90
27779;DHT22;30234;48.090;11.464;2022-07-29T04:53:25;25.30;99.90
27779;DHT22;30234;48.090;11.464;2022-07-29T04:57:26;25.80;99.90
27779;DHT22;30234;48.090;11.464;2022-07-29T05:01:27;26.80;99.90
27779;DHT22;30234;48.090;11.464;2022-07-29T05:05:28;27.10;99.90
27779;DHT22;30234;48.090;11.464;2022-07-29T05:09:29;25.30;99.90
27779;DHT22;30234;48.090;11.464;2022-07-29T05:13:32;23.10;99.90
27779;DHT22;30234;48.090;11.464;2022-07-29T05:17:33;21.70;99.90
27779;DHT22;30234;48.090;11.464;2022-07-29T05:21:34;20.90;99.90
27779;DHT22;30234;48.090;11.464;2022-07-29T05:25:35;20.70;99.90
27779;DHT22;30234;48.090;11.464;2022-07-29T05:29:36;24.30;99.90
27779;DHT22;30234;48.090;11.464;2022-07-29T05:33:37;27.40;99.90
27779;DHT22;30234;48.090;11.464;2022-07-29T05:37:38;29.30;99.80
27779;DHT22;30234;48.090;11.464;2022-07-29T05:41:39;30.20;95.20
27779;DHT22;30234;48.090;11.464;2022-07-29T05:45:40;31.10;90.80
27779;DHT22;30234;48.090;11.464;2022-07-29T05:49:41;30.10;88.60
27779;DHT22;30234;48.090;11.464;2022-07-29T05:53:42;29.10;90.20
27779;DHT22;30234;48.090;11.464;2022-07-29T05:57:43;31.00;87.10
27779;DHT22;30234;48.090;11.464;2022-07-29T06:01:46;32.60;78.00
27779;DHT22;30234;48.090;11.464;2022-07-29T06:05:46;33.90;73.60
27779;DHT22;30234;48.090;11.464;2022-07-29T06:09:47;35.30;67.30
27779;DHT22;30234;48.090;11.464;2022-07-29T06:13:48;34.90;64.70
27779;DHT22;30234;48.090;11.464;2022-07-29T06:17:49;35.20;62.00
27779;DHT22;30234;48.090;11.464;2022-07-29T06:21:51;35.70;58.70
27779;DHT22;30234;48.090;11.464;2022-07-29T06:25:51;35.30;58.30
27779;DHT22;30234;48.090;11.464;2022-07-29T06:29:53;35.50;58.30
27779;DHT22;30234;48.090;11.464;2022-07-29T06:33:54;35.90;57.10
27779;DHT22;30234;48.090;11.464;2022-07-29T06:37:55;36.80;55.50
27779;DHT22;30234;48.090;11.464;2022-07-29T06:41:56;37.00;54.40
27779;DHT22;30234;48.090;11.464;2022-07-29T06:46:05;36.50;54.30
27779;DHT22;30234;48.090;11.464;2022-07-29T06:50:10;37.70;52.70
27779;DHT22;30234;48.090;11.464;2022-07-29T06:54:14;38.60;50.50
27779;DHT22;30234;48.090;11.464;2022-07-29T06:58:15;38.50;50.40
27779;DHT22;30234;48.090;11.464;2022-07-29T07:02:18;38.20;50.10
27779;DHT22;30234;48.090;11.464;2022-07-29T07:06:19;38.10;50.00
27779;DHT22;30234;48.090;11.464;2022-07-29T07:10:20;39.00;48.50
27779;DHT22;30234;48.090;11.464;2022-07-29T07:14:21;40.10;46.50
27779;DHT22;30234;48.090;11.464;2022-07-29T07:18:22;39.80;46.10
27779;DHT22;30234;48.090;11.464;2022-07-29T07:22:22;39.60;45.40
27779;DHT22;30234;48.090;11.464;2022-07-29T07:26:23;39.70;44.80
27779;DHT22;30234;48.090;11.464;2022-07-29T07:30:24;39.30;43.50
27779;DHT22;30234;48.090;11.464;2022-07-29T07:34:25;38.80;44.30
27779;DHT22;30234;48.090;11.464;2022-07-29T07:38:26;39.10;44.00
27779;DHT22;30234;48.090;11.464;2022-07-29T07:42:27;39.10;44.10
27779;DHT22;30234;48.090;11.464;2022-07-29T07:46:28;39.60;43.10
27779;DHT22;30234;48.090;11.464;2022-07-29T07:50:29;40.30;42.00
27779;DHT22;30234;48.090;11.464;2022-07-29T07:54:31;40.30;42.50
27779;DHT22;30234;48.090;11.464;2022-07-29T07:58:41;40.30;41.20
27779;DHT22;30234;48.090;11.464;2022-07-29T08:02:42;38.90;42.30
27779;DHT22;30234;48.090;11.464;2022-07-29T08:06:43;37.90;43.60
27779;DHT22;30234;48.090;11.464;2022-07-29T08:10:44;37.90;44.50
27779;DHT22;30234;48.090;11.464;2022-07-29T08:15:17;37.20;44.80
27779;DHT22;30234;48.090;11.464;2022-07-29T08:19:18;37.90;44.30
27779;DHT22;30234;48.090;11.464;2022-07-29T08:23:20;38.70;43.60
27779;DHT22;30234;48.090;11.464;2022-07-29T08:27:21;39.90;42.10
27779;DHT22;30234;48.090;11.464;2022-07-29T08:31:22;40.50;41.60
27779;DHT22;30234;48.090;11.464;2022-07-29T08:35:24;40.30;41.90
27779;DHT22;30234;48.090;11.464;2022-07-29T08:39:25;39.10;42.80
27779;DHT22;30234;48.090;11.464;2022-07-29T08:43:28;36.80;44.10
27779;DHT22;30234;48.090;11.464;2022-07-29T08:47:29;35.20;46.60
27779;DHT22;30234;48.090;11.464;2022-07-29T08:51:30;33.70;49.10
27779;DHT22;30234;48.090;11.464;2022-07-29T08:55:34;33.50;50.10
27779;DHT22;30234;48.090;11.464;2022-07-29T08:59:35;33.30;51.00
27779;DHT22;30234;48.090;11.464;2022-07-29T09:03:39;33.90;49.80
27779;DHT22;30234;48.090;11.464;2022-07-29T09:07:40;34.40;49.80
27779;DHT22;30234;48.090;11.464;2022-07-29T09:11:43;35.30;48.40
27779;DHT22;30234;48.090;11.464;2022-07-29T09:15:45;36.40;47.10
27779;DHT22;30234;48.090;11.464;2022-07-29T09:19:45;37.60;44.70
27779;DHT22;30234;48.090;11.464;2022-07-29T09:28:10;35.70;47.70
27779;DHT22;30234;48.090;11.464;2022-07-29T09:32:14;35.30;48.00
27779;DHT22;30234;48.090;11.464;2022-07-29T09:41:49;32.90;51.00
27779;DHT22;30234;48.090;11.464;2022-07-29T09:45:53;30.40;55.20
27779;DHT22;30234;48.090;11.464;2022-07-29T09:49:58;29.70;57.60
27779;DHT22;30234;48.090;11.464;2022-07-29T09:53:59;30.30;57.50
27779;DHT22;30234;48.090;11.464;2022-07-29T09:58:20;30.40;57.10
27779;DHT22;30234;48.090;11.464;2022-07-29T10:02:22;29.90;58.30
27779;DHT22;30234;48.090;11.464;2022-07-29T10:06:28;29.10;59.30
27779;DHT22;30234;48.090;11.464;2022-07-29T10:10:33;28.50;60.70
27779;DHT22;30234;48.090;11.464;2022-07-29T10:14:37;28.40;61.50
27779;DHT22;30234;48.090;11.464;2022-07-29T10:18:39;28.10;62.40
27779;DHT22;30234;48.090;11.464;2022-07-29T10:22:44;27.80;63.20
27779;DHT22;30234;48.090;11.464;2022-07-29T10:26:47;27.80;63.60
27779;DHT22;30234;48.090;11.464;2022-07-29T10:30:50;28.00;63.60
27779;DHT22;30234;48.090;11.464;2022-07-29T10:44:44;31.80;56.90
27779;DHT22;30234;48.090;11.464;2022-07-29T10:49:11;33.70;54.20
27779;DHT22;30234;48.090;11.464;2022-07-29T10:53:15;36.30;50.30
27779;DHT22;30234;48.090;11.464;2022-07-29T11:01:30;35.40;48.00
27779;DHT22;30234;48.090;11.464;2022-07-29T11:05:52;33.60;49.70
27779;DHT22;30234;48.090;11.464;2022-07-29T11:14:12;32.80;52.30
27779;DHT22;30234;48.090;11.464;2022-07-29T11:18:14;32.90;50.70
27779;DHT22;30234;48.090;11.464;2022-07-29T11:22:35;32.40;52.40
27779;DHT22;30234;48.090;11.464;2022-07-29T11:26:37;32.30;52.00
27779;DHT22;30234;48.090;11.464;2022-07-29T11:30:48;32.90;51.20
27779;DHT22;30234;48.090;11.464;2022-07-29T11:39:28;33.40;49.60
27779;DHT22;30234;48.090;11.464;2022-07-29T11:43:56;33.20;51.30
27779;DHT22;30234;48.090;11.464;2022-07-29T11:47:58;33.40;50.20
27779;DHT22;30234;48.090;11.464;2022-07-29T11:52:00;33.30;50.30
27779;DHT22;30234;48.090;11.464;2022-07-29T11:56:08;32.80;50.40
27779;DHT22;30234;48.090;11.464;2022-07-29T12:00:10;31.80;52.30
27779;DHT22;30234;48.090;11.464;2022-07-29T12:04:11;31.70;52.10
27779;DHT22;30234;48.090;11.464;2022-07-29T12:08:22;31.30;53.20
27779;DHT22;30234;48.090;11.464;2022-07-29T12:12:23;32.10;53.30
27779;DHT22;30234;48.090;11.464;2022-07-29T12:16:37;32.10;52.00
27779;DHT22;30234;48.090;11.464;2022-07-29T12:20:37;32.10;52.00
27779;DHT22;30234;48.090;11.464;2022-07-29T12:24:44;32.00;52.10
27779;DHT22;30234;48.090;11.464;2022-07-29T12:28:45;31.50;53.30
27779;DHT22;30234;48.090;11.464;2022-07-29T12:32:47;31.70;52.80
27779;DHT22;30234;48.090;11.464;2022-07-29T12:36:49;32.30;53.00
27779;DHT22;30234;48.090;11.464;2022-07-29T12:40:53;32.30;52.40
27779;DHT22;30234;48.090;11.464;2022-07-29T12:44:54;31.90;52.50
27779;DHT22;30234;48.090;11.464;2022-07-29T12:48:55;31.50;54.40
27779;DHT22;30234;48.090;11.464;2022-07-29T12:53:08;30.90;54.60
27779;DHT22;30234;48.090;11.464;2022-07-29T12:57:10;30.60;55.50
27779;DHT22;30234;48.090;11.464;2022-07-29T13:01:13;30.10;56.90
27779;DHT22;30234;48.090;11.464;2022-07-29T13:05:16;29.50;57.50
27779;DHT22;30234;48.090;11.464;2022-07-29T13:09:18;29.10;58.30
27779;DHT22;30234;48.090;11.464;2022-07-29T13:13:20;28.60;59.90
27779;DHT22;30234;48.090;11.464;2022-07-29T13:17:22;28.00;61.00
27779;DHT22;30234;48.090;11.464;2022-07-29T13:21:23;27.60;63.50
27779;DHT22;30234;48.090;11.464;2022-07-29T13:25:31;27.30;63.90
27779;DHT22;30234;48.090;11.464;2022-07-29T13:29:32;27.20;64.90
27779;DHT22;30234;48.090;11.464;2022-07-29T13:33:33;26.90;65.20
27779;DHT22;30234;48.090;11.464;2022-07-29T13:37:35;26.90;65.20
27779;DHT22;30234;48.090;11.464;2022-07-29T13:41:38;26.90;65.80
27779;DHT22;30234;48.090;11.464;2022-07-29T13:45:39;27.00;66.40
27779;DHT22;30234;48.090;11.464;2022-07-29T13:49:39;27.10;67.60
27779;DHT22;30234;48.090;11.464;2022-07-29T13:53:40;27.50;67.10
27779;DHT22;30234;48.090;11.464;2022-07-29T13:57:41;28.10;65.30
27779;DHT22;30234;48.090;11.464;2022-07-29T14:01:42;28.70;64.10
27779;DHT22;30234;48.090;11.464;2022-07-29T14:05:43;29.40;62.40
27779;DHT22;30234;48.090;11.464;2022-07-29T14:09:44;29.80;60.70
27779;DHT22;30234;48.090;11.464;2022-07-29T14:13:45;29.50;60.20
27779;DHT22;30234;48.090;11.464;2022-07-29T14:17:45;29.00;60.90
27779;DHT22;30234;48.090;11.464;2022-07-29T14:21:46;28.90;60.90
27779;DHT22;30234;48.090;11.464;2022-07-29T14:25:47;29.00;60.90
27779;DHT22;30234;48.090;11.464;2022-07-29T14:29:47;29.10;60.30
27779;DHT22;30234;48.090;11.464;2022-07-29T14:33:48;28.90;60.50
27779;DHT22;30234;48.090;11.464;2022-07-29T14:37:49;28.70;61.40
27779;DHT22;30234;48.090;11.464;2022-07-29T14:41:50;28.80;61.50
27779;DHT22;30234;48.090;11.464;2022-07-29T14:45:51;28.80;62.00
27779;DHT22;30234;48.090;11.464;2022-07-29T14:49:52;28.90;61.60
27779;DHT22;30234;48.090;11.464;2022-07-29T14:53:52;28.80;62.50
27779;DHT22;30234;48.090;11.464;2022-07-29T14:57:53;27.90;63.70
27779;DHT22;30234;48.090;11.464;2022-07-29T15:01:55;27.70;64.10
27779;DHT22;30234;48.090;11.464;2022-07-29T15:05:55;27.60;65.10
27779;DHT22;30234;48.090;11.464;2022-07-29T15:09:56;27.80;65.40
27779;DHT22;30234;48.090;11.464;2022-07-29T15:13:57;27.70;65.10
27779;DHT22;30234;48.090;11.464;2022-07-29T15:17:58;27.60;66.00
27779;DHT22;30234;48.090;11.464;2022-07-29T15:21:59;27.30;66.70
27779;DHT22;30234;48.090;11.464;2022-07-29T15:26:00;27.20;67.50
27779;DHT22;30234;48.090;11.464;2022-07-29T15:30:01;27.00;67.90
27779;DHT22;30234;48.090;11.464;2022-07-29T15:34:02;26.80;68.60
27779;DHT22;30234;48.090;11.464;2022-07-29T15:38:03;26.40;71.40
27779;DHT22;30234;48.090;11.464;2022-07-29T15:42:04;26.20;73.10
27779;DHT22;30234;48.090;11.464;2022-07-29T15:46:05;25.80;74.60
27779;DHT22;30234;48.090;11.464;2022-07-29T15:50:24;25.70;74.90
27779;DHT22;30234;48.090;11.464;2022-07-29T15:54:25;25.50;76.10
27779;DHT22;30234;48.090;11.464;2022-07-29T15:58:27;25.40;76.70
27779;DHT22;30234;48.090;11.464;2022-07-29T16:02:28;25.20;76.90
27779;DHT22;30234;48.090;11.464;2022-07-29T16:06:32;24.90;78.00
27779;DHT22;30234;48.090;11.464;2022-07-29T16:10:33;24.70;78.90
27779;DHT22;30234;48.090;11.464;2022-07-29T16:14:37;24.50;79.80
27779;DHT22;30234;48.090;11.464;2022-07-29T16:18:38;24.40;80.60
27779;DHT22;30234;48.090;11.464;2022-07-29T16:23:02;24.30;81.00
27779;DHT22;30234;48.090;11.464;2022-07-29T16:27:04;24.40;81.10
27779;DHT22;30234;48.090;11.464;2022-07-29T16:31:05;24.30;82.10
27779;DHT22;30234;48.090;11.464;2022-07-29T16:35:06;24.10;83.00
27779;DHT22;30234;48.090;11.464;2022-07-29T16:39:07;24.00;84.00
27779;DHT22;30234;48.090;11.464;2022-07-29T16:43:10;23.80;85.40
27779;DHT22;30234;48.090;11.464;2022-07-29T16:47:11;23.60;86.40
27779;DHT22;30234;48.090;11.464;2022-07-29T16:51:11;23.50;88.10
27779;DHT22;30234;48.090;11.464;2022-07-29T16:55:12;23.40;90.50
27779;DHT22;30234;48.090;11.464;2022-07-29T16:59:13;23.00;92.10
27779;DHT22;30234;48.090;11.464;2022-07-29T17:03:14;22.70;94.00
27779;DHT22;30234;48.090;11.464;2022-07-29T17:07:15;22.50;97.00
27779;DHT22;30234;48.090;11.464;2022-07-29T17:11:16;22.30;99.90
27779;DHT22;30234;48.090;11.464;2022-07-29T17:15:17;22.20;99.90
27779;DHT22;30234;48.090;11.464;2022-07-29T17:19:18;22.10;99.90
27779;DHT22;30234;48.090;11.464;2022-07-29T17:23:19;22.10;99.90
27779;DHT22;30234;48.090;11.464;2022-07-29T17:27:20;22.00;99.90
27779;DHT22;30234;48.090;11.464;2022-07-29T17:31:21;21.80;99.90
27779;DHT22;30234;48.090;11.464;2022-07-29T17:35:25;21.60;99.90
27779;DHT22;30234;48.090;11.464;2022-07-29T17:39:44;21.40;99.90
27779;DHT22;30234;48.090;11.464;2022-07-29T17:43:45;21.10;99.90
27779;DHT22;30234;48.090;11.464;2022-07-29T17:47:46;20.80;99.90
27779;DHT22;30234;48.090;11.464;2022-07-29T17:51:46;20.60;99.90
27779;DHT22;30234;48.090;11.464;2022-07-29T17:55:47;20.50;99.90
27779;DHT22;30234;48.090;11.464;2022-07-29T17:59:49;20.40;99.90
27779;DHT22;30234;48.090;11.464;2022-07-29T18:03:50;20.20;99.90
27779;DHT22;30234;48.090;11.464;2022-07-29T18:07:51;20.00;99.90
27779;DHT22;30234;48.090;11.464;2022-07-29T18:11:52;19.80;99.90
27779;DHT22;30234;48.090;11.464;2022-07-29T18:15:53;19.60;99.90
27779;DHT22;30234;48.090;11.464;2022-07-29T18:19:54;19.30;99.90
27779;DHT22;30234;48.090;11.464;2022-07-29T18:23:55;19.10;99.90
27779;DHT22;30234;48.090;11.464;2022-07-29T18:27:55;18.90;99.90
27779;DHT22;30234;48.090;11.464;2022-07-29T18:31:56;18.80;99.90
27779;DHT22;30234;48.090;11.464;2022-07-29T18:35:59;18.70;99.90
27779;DHT22;30234;48.090;11.464;2022-07-29T18:39:59;18.60;99.90
27779;DHT22;30234;48.090;11.464;2022-07-29T18:44:00;18.40;99.90
27779;DHT22;30234;48.090;11.464;2022-07-29T18:48:01;18.30;99.90
27779;DHT22;30234;48.090;11.464;2022-07-29T18:52:02;18.20;99.90
27779;DHT22;30234;48.090;11.464;2022-07-29T18:56:12;18.00;99.90
27779;DHT22;30234;48.090;11.464;2022-07-29T19:00:13;17.80;99.90
27779;DHT22;30234;48.090;11.464;2022-07-29T19:04:17;17.70;99.90
27779;DHT22;30234;48.090;11.464;2022-07-29T19:08:18;17.60;99.90
27779;DHT22;30234;48.090;11.464;2022-07-29T19:12:19;17.40;99.90
27779;DHT22;30234;48.090;11.464;2022-07-29T19:16:20;17.30;99.90
27779;DHT22;30234;48.090;11.464;2022-07-29T19:20:21;17.20;99.90
27779;DHT22;30234;48.090;11.464;2022-07-29T19:24:28;17.20;99.90
27779;DHT22;30234;48.090;11.464;2022-07-29T19:28:28;17.10;99.90
27779;DHT22;30234;48.090;11.464;2022-07-29T19:32:29;17.00;99.90
27779;DHT22;30234;48.090;11.464;2022-07-29T19:36:30;17.00;99.90
27779;DHT22;30234;48.090;11.464;2022-07-29T19:40:31;17.00;99.90
27779;DHT22;30234;48.090;11.464;2022-07-29T19:44:31;17.00;99.90
27779;DHT22;30234;48.090;11.464;2022-07-29T19:48:32;17.00;99.90
27779;DHT22;30234;48.090;11.464;2022-07-29T19:52:33;17.00;99.90
27779;DHT22;30234;48.090;11.464;2022-07-29T19:56:35;16.90;99.90
27779;DHT22;30234;48.090;11.464;2022-07-29T20:00:39;16.70;99.90
27779;DHT22;30234;48.090;11.464;2022-07-29T20:04:43;16.70;99.90
27779;DHT22;30234;48.090;11.464;2022-07-29T20:08:50;16.70;99.90
27779;DHT22;30234;48.090;11.464;2022-07-29T20:12:51;16.60;99.90
27779;DHT22;30234;48.090;11.464;2022-07-29T20:16:52;16.60;99.90
27779;DHT22;30234;48.090;11.464;2022-07-29T20:20:53;16.60;99.90
27779;DHT22;30234;48.090;11.464;2022-07-29T20:24:56;16.60;99.90
27779;DHT22;30234;48.090;11.464;2022-07-29T20:28:57;16.60;99.90
27779;DHT22;30234;48.090;11.464;2022-07-29T20:32:58;16.60;99.90
27779;DHT22;30234;48.090;11.464;2022-07-29T20:36:59;16.70;99.90
27779;DHT22;30234;48.090;11.464;2022-07-29T20:41:00;16.70;99.90
27779;DHT22;30234;48.090;11.464;2022-07-29T20:45:02;16.80;99.90
27779;DHT22;30234;48.090;11.464;2022-07-29T20:49:04;16.80;99.90
27779;DHT22;30234;48.090;11.464;2022-07-29T20:53:05;16.80;99.90
27779;DHT22;30234;48.090;11.464;2022-07-29T20:57:06;16.80;99.90
27779;DHT22;30234;48.090;11.464;2022-07-29T21:01:07;16.70;99.90
27779;DHT22;30234;48.090;11.464;2022-07-29T21:05:09;16.70;99.90
27779;DHT22;30234;48.090;11.464;2022-07-29T21:09:10;16.60;99.90
27779;DHT22;30234;48.090;11.464;2022-07-29T21:13:10;16.60;99.90
27779;DHT22;30234;48.090;11.464;2022-07-29T21:17:14;16.60;99.90
27779;DHT22;30234;48.090;11.464;2022-07-29T21:21:15;16.70;99.90
27779;DHT22;30234;48.090;11.464;2022-07-29T21:25:16;16.70;99.90
27779;DHT22;30234;48.090;11.464;2022-07-29T21:29:17;16.60;99.90
27779;DHT22;30234;48.090;11.464;2022-07-29T21:33:18;16.70;99.90
27779;DHT22;30234;48.090;11.464;2022-07-29T21:37:19;16.70;99.90
27779;DHT22;30234;48.090;11.464;2022-07-29T21:41:20;16.70;99.90
27779;DHT22;30234;48.090;11.464;2022-07-29T21:45:21;16.70;99.90
27779;DHT22;30234;48.090;11.464;2022-07-29T21:49:22;16.70;99.90
27779;DHT22;30234;48.090;11.464;2022-07-29T21:53:23;16.70;99.90
27779;DHT22;30234;48.090;11.464;2022-07-29T21:57:23;16.70;99.90
27779;DHT22;30234;48.090;11.464;2022-07-29T22:01:25;16.70;99.90
27779;DHT22;30234;48.090;11.464;2022-07-29T22:05:27;16.70;99.90
27779;DHT22;30234;48.090;11.464;2022-07-29T22:09:29;16.70;99.90
27779;DHT22;30234;48.090;11.464;2022-07-29T22:13:29;16.70;99.90
27779;DHT22;30234;48.090;11.464;2022-07-29T22:17:30;16.70;99.90
27779;DHT22;30234;48.090;11.464;2022-07-29T22:21:31;16.70;99.90
27779;DHT22;30234;48.090;11.464;2022-07-29T22:25:32;16.60;99.90
27779;DHT22;30234;48.090;11.464;2022-07-29T22:29:33;16.60;99.90
27779;DHT22;30234;48.090;11.464;2022-07-29T22:33:33;16.60;99.90
27779;DHT22;30234;48.090;11.464;2022-07-29T22:37:34;16.50;99.90
27779;DHT22;30234;48.090;11.464;2022-07-29T22:41:35;16.50;99.90
27779;DHT22;30234;48.090;11.464;2022-07-29T22:45:36;16.40;99.90
27779;DHT22;30234;48.090;11.464;2022-07-29T22:49:36;16.40;99.90
27779;DHT22;30234;48.090;11.464;2022-07-29T22:53:37;16.30;99.90
27779;DHT22;30234;48.090;11.464;2022-07-29T22:57:38;16.30;99.90
27779;DHT22;30234;48.090;11.464;2022-07-29T23:01:38;16.30;99.90
27779;DHT22;30234;48.090;11.464;2022-07-29T23:05:39;16.30;99.90
27779;DHT22;30234;48.090;11.464;2022-07-29T23:09:40;16.30;99.90
27779;DHT22;30234;48.090;11.464;2022-07-29T23:13:41;16.30;99.90
27779;DHT22;30234;48.090;11.464;2022-07-29T23:17:41;16.30;99.90
27779;DHT22;30234;48.090;11.464;2022-07-29T23:21:42;16.30;99.90
27779;DHT22;30234;48.090;11.464;2022-07-29T23:25:43;16.20;99.90
27779;DHT22;30234;48.090;11.464;2022-07-29T23:29:44;16.20;99.90
27779;DHT22;30234;48.090;11.464;2022-07-29T23:33:44;16.20;99.90
27779;DHT22;30234;48.090;11.464;2022-07-29T23:37:45;16.10;99.90
27779;DHT22;30234;48.090;11.464;2022-07-29T23:41:46;16.10;99.90
27779;DHT22;30234;48.090;11.464;2022-07-29T23:45:47;16.00;99.90
27779;DHT22;30234;48.090;11.464;2022-07-29T23:49:47;16.10;99.90
27779;DHT22;30234;48.090;11.464;2022-07-29T23:53:49;16.10;99.90
27779;DHT22;30234;48.090;11.464;2022-07-29T23:57:49;16.00;99.90
